McClellanville, SC

4:15 PM EDT on July 22, 2017 (GMT -0400)
Georgetown County | | Change Station
Active Advisory: Coastal Flood Advisory Active Notice: Coastal Flood Advisory

Elev 39 ft 33.31 °N, 79.32 °W | Updated 24 seconds ago

Clear
Clear
88 °F
Feels Like 100 °F
N
13
Wind Variable Wind from South

Today
High -- | Low -- °F
--% Chance of Precip.
Yesterday
High -- | Low -- °F
Precip. -- in
Pressure 29.95 in
Visibility 10.0 miles
Clouds Clear
Heat Index 100 °F
Dew Point 77 °F
Humidity 70%
Rainfall 0.00 in
Snow Depth Not available.
6:24 AM 8:23 PM
Waning Crescent, 0% visible
METAR KGGE 222015Z AUTO 19011KT 10SM CLR 31/25 A2995 RMK AO2
Pressure 29.95 in
Visibility 10.0 miles
Clouds Clear
Heat Index 100 °F
Dew Point 77 °F
Humidity 70%
Rainfall 0.00 in
Snow Depth Not available.
6:24 AM 8:23 PM
Waning Crescent, 0% visible
METAR KGGE 222015Z AUTO 19011KT 10SM CLR 31/25 A2995 RMK AO2

Get Your Daily Forecast Email!

Thanks for signing up!

Be on the lookout for a verification email in your inbox.

You'll start receiving severe weather alerts in your inbox..

×

10-Day Weather Forecast

Almanac

Astronomy

Jul. 22, 2017 Rise Set
Actual Time
Civil Twilight
Nautical Twilight
Astronomical Twilight
Moon
Length of Visible Light
Length of Day
Tomorrow will be .
, % of the Moon is Illuminated

Today's Extremes

State Highs State Lows

Community

WunderPhotos

Category 6

Welcome to Category 6. This is the collective home for Weather Underground's featured writeups by Dr. Jeff Masters (right), Bob Henson (left), Chris Burt, and other regular contributors.

Nearby

Air Quality

  Air Quality AQ Index Pollutant
Not available.

Snow Depth

Station Depth Elevation

Earthquake Activity

City Distance Mag. Time & Date
Minimum magnitude displayed is 2.5.

Coastal Water Temperatures

Place Temperature

Stations

Nearby Weather Stations

Station Location Temp. Windchill Dew Point Humidity Wind Precip. Elev Updated Type
                   

Watches & Warnings

Coastal Flood Advisory
Issued: 3:03 PM EDT Jul. 22, 2017 – National Weather Service

... Coastal flood advisory in effect from 7 PM to 9 PM EDT this
evening...

The National Weather Service in Charleston has issued a coastal
flood advisory... which is in effect from 7 PM to 9 PM EDT this
evening.

* Locations... low-lying coastal areas of southeast South Carolina
including downtown Charleston.

* Tide levels... peaking between 7.2 and 7.4 feet mean lower low
water.

* Timing... high tide will occur around 815 PM at Charleston.
Shallow saltwater flooding will be possible up to one hour
either side of high tide.

* Coastal flood impacts... inundation of saltwater in and near low-
lying coastal areas could result in some roads becoming
impassable.

Precautionary/preparedness actions...

Be prepared for the possibility of impassable roads. If travel is
necessary... do not attempt to drive through water of unknown
depth.